createdAt,value
2018-09-13T00:02:23.896Z,19.10
2018-09-13T00:04:53.337Z,19.01
2018-09-13T00:07:22.659Z,19.07
2018-09-13T00:09:51.893Z,19.07
2018-09-13T00:12:21.180Z,19.14
2018-09-13T00:14:50.502Z,18.84
2018-09-13T00:17:19.801Z,18.64
2018-09-13T00:19:49.210Z,18.58
2018-09-13T00:22:18.422Z,18.64
2018-09-13T00:24:47.770Z,18.64
2018-09-13T00:27:17.108Z,18.59
2018-09-13T00:29:46.298Z,18.61
2018-09-13T00:32:15.606Z,18.57
2018-09-13T00:34:45.109Z,18.45
2018-09-13T00:37:14.409Z,18.39
2018-09-13T00:39:43.914Z,18.25
2018-09-13T00:42:13.119Z,18.14
2018-09-13T00:44:42.443Z,18.23
2018-09-13T00:47:13.030Z,18.28
2018-09-13T00:49:43.302Z,18.29
2018-09-13T00:52:12.522Z,18.18
2018-09-13T00:54:41.971Z,18.18
2018-09-13T00:57:11.468Z,18.17
2018-09-13T00:59:40.665Z,18.18
2018-09-13T01:02:10.172Z,18.09
2018-09-13T01:04:39.580Z,18.06
2018-09-13T01:07:09.038Z,18.08
2018-09-13T01:09:38.479Z,18.25
2018-09-13T01:12:07.818Z,18.35
2018-09-13T01:14:37.084Z,18.23
2018-09-13T01:17:06.583Z,18.29
2018-09-13T01:19:36.088Z,18.29
2018-09-13T01:22:05.315Z,18.29
2018-09-13T01:24:34.685Z,18.38
2018-09-13T01:27:04.043Z,18.22
2018-09-13T01:29:33.534Z,18.36
2018-09-13T01:32:02.996Z,18.28
2018-09-13T01:34:32.293Z,18.35
2018-09-13T01:37:01.696Z,18.38
2018-09-13T01:39:31.199Z,18.44
2018-09-13T01:42:00.706Z,18.30
2018-09-13T01:44:29.967Z,18.28
2018-09-13T01:46:59.213Z,18.22
2018-09-13T01:49:28.528Z,18.15
2018-09-13T01:51:58.006Z,18.18
2018-09-13T01:54:27.409Z,18.06
2018-09-13T01:56:56.810Z,18.04
2018-09-13T01:59:26.336Z,17.94
2018-09-13T02:01:55.919Z,17.84
2018-09-13T02:04:25.242Z,17.74
2018-09-13T02:06:54.633Z,17.85
2018-09-13T02:09:23.924Z,17.95
2018-09-13T02:11:53.535Z,17.94
2018-09-13T02:14:23.250Z,17.89
2018-09-13T02:16:52.948Z,17.88
2018-09-13T02:19:22.351Z,17.97
2018-09-13T02:21:51.854Z,18.05
2018-09-13T02:24:21.256Z,18.10
2018-09-13T02:26:50.657Z,18.03
2018-09-13T02:29:20.060Z,17.90
2018-09-13T02:31:49.462Z,17.74
2018-09-13T02:34:18.763Z,17.79
2018-09-13T02:36:48.162Z,17.71
2018-09-13T02:39:17.567Z,17.67
2018-09-13T02:41:47.006Z,17.57
2018-09-13T02:44:16.370Z,17.64
2018-09-13T02:46:46.078Z,17.81
2018-09-13T02:49:15.343Z,17.89
2018-09-13T02:51:44.781Z,17.88
2018-09-13T02:54:14.111Z,17.77
2018-09-13T02:56:43.649Z,17.88
2018-09-13T02:59:13.090Z,18.09
2018-09-13T03:01:42.593Z,18.06
2018-09-13T03:04:12.057Z,18.07
2018-09-13T03:06:41.599Z,18.14
2018-09-13T03:09:12.690Z,18.02
2018-09-13T03:11:43.452Z,18.00
2018-09-13T03:14:12.812Z,17.87
2018-09-13T03:16:42.308Z,17.86
2018-09-13T03:19:11.535Z,17.73
2018-09-13T03:21:40.882Z,17.68
2018-09-13T03:24:10.282Z,17.67
2018-09-13T03:26:39.795Z,17.75
2018-09-13T03:29:09.294Z,17.68
2018-09-13T03:31:38.618Z,17.70
2018-09-13T03:34:08.121Z,17.74
2018-09-13T03:36:37.515Z,17.69
2018-09-13T03:39:09.691Z,17.80
2018-09-13T03:41:38.963Z,17.83
2018-09-13T03:44:08.321Z,17.71
2018-09-13T03:46:38.076Z,17.63
2018-09-13T03:49:07.477Z,17.74
2018-09-13T03:51:37.084Z,17.88
2018-09-13T03:54:06.593Z,17.76
2018-09-13T03:56:35.990Z,17.63
2018-09-13T03:59:05.247Z,17.64
2018-09-13T04:01:34.691Z,17.70
2018-09-13T04:04:03.994Z,17.68
2018-09-13T04:06:33.398Z,17.73
2018-09-13T04:09:02.827Z,17.82
2018-09-13T04:11:32.195Z,17.78
2018-09-13T04:14:02.104Z,17.89
2018-09-13T04:16:31.512Z,17.90
2018-09-13T04:19:00.915Z,17.98
2018-09-13T04:21:30.524Z,18.05
2018-09-13T04:23:59.922Z,17.89
2018-09-13T04:26:29.370Z,18.00
2018-09-13T04:28:58.548Z,17.93
2018-09-13T04:31:28.132Z,17.91
2018-09-13T04:33:57.336Z,17.72
2018-09-13T04:36:26.798Z,17.57
2018-09-13T04:38:56.036Z,17.65
2018-09-13T04:41:25.431Z,17.60
2018-09-13T04:43:54.674Z,17.67
2018-09-13T04:46:23.898Z,17.70
2018-09-13T04:48:53.107Z,17.61
2018-09-13T04:51:22.423Z,17.67
2018-09-13T04:53:51.607Z,17.64
2018-09-13T04:56:20.884Z,17.54
2018-09-13T04:58:50.083Z,17.49
2018-09-13T05:01:19.416Z,17.51
2018-09-13T05:03:48.815Z,17.66
2018-09-13T05:06:18.533Z,17.50
2018-09-13T05:08:47.760Z,17.52
2018-09-13T05:11:17.130Z,17.47
2018-09-13T05:13:46.447Z,17.56
2018-09-13T05:16:15.645Z,17.70
2018-09-13T05:18:44.924Z,17.78
2018-09-13T05:21:14.127Z,17.64
2018-09-13T05:23:43.523Z,17.61
2018-09-13T05:26:12.925Z,17.59
2018-09-13T05:28:42.183Z,17.57
2018-09-13T05:31:11.627Z,17.61
2018-09-13T05:33:40.810Z,17.47
2018-09-13T05:36:10.226Z,17.49
2018-09-13T05:38:39.455Z,17.47
2018-09-13T05:41:08.825Z,17.57
2018-09-13T05:43:38.142Z,17.49
2018-09-13T05:46:07.370Z,17.38
2018-09-13T05:48:37.031Z,17.26
2018-09-13T05:51:06.281Z,17.26
2018-09-13T05:53:35.733Z,17.29
2018-09-13T05:56:04.969Z,17.37
2018-09-13T05:58:34.434Z,17.46
2018-09-13T06:01:03.840Z,17.43
2018-09-13T06:03:33.240Z,17.50
2018-09-13T06:06:02.482Z,17.41
2018-09-13T06:08:31.837Z,17.41
2018-09-13T06:11:01.054Z,17.52
2018-09-13T06:13:30.393Z,17.62
2018-09-13T06:15:59.840Z,17.74
2018-09-13T06:18:29.244Z,17.83
2018-09-13T06:20:58.621Z,17.96
2018-09-13T06:23:28.146Z,17.96
2018-09-13T06:25:57.546Z,17.94
2018-09-13T06:28:26.950Z,17.91
2018-09-13T06:30:56.197Z,17.99
2018-09-13T06:33:25.551Z,18.18
2018-09-13T06:35:55.158Z,18.15
2018-09-13T06:38:24.669Z,18.16
2018-09-13T06:40:54.166Z,18.27
2018-09-13T06:43:23.567Z,18.30
2018-09-13T06:45:52.830Z,18.20
2018-09-13T06:48:22.240Z,18.04
2018-09-13T06:50:51.572Z,17.98
2018-09-13T06:53:20.831Z,18.14
2018-09-13T06:55:50.029Z,18.09
2018-09-13T06:58:19.255Z,18.25
2018-09-13T07:00:48.542Z,18.35
2018-09-13T07:03:17.757Z,18.19
2018-09-13T07:05:47.366Z,18.31
2018-09-13T07:08:16.702Z,18.35
2018-09-13T07:10:46.068Z,18.27
2018-09-13T07:13:15.437Z,18.14
2018-09-13T07:15:44.876Z,18.54
2018-09-13T07:18:14.169Z,18.43
2018-09-13T07:20:43.468Z,18.58
2018-09-13T07:23:12.815Z,18.60
2018-09-13T07:25:42.068Z,18.70
2018-09-13T07:28:11.657Z,18.62
2018-09-13T07:30:41.078Z,18.64
2018-09-13T07:33:10.582Z,18.55
2018-09-13T07:35:39.994Z,18.57
2018-09-13T07:38:09.489Z,18.54
2018-09-13T07:40:38.705Z,18.65
2018-09-13T07:43:08.031Z,18.80
2018-09-13T07:45:37.256Z,18.87
2018-09-13T07:48:06.540Z,18.93
2018-09-13T07:50:36.090Z,18.79
2018-09-13T07:53:05.338Z,18.92
2018-09-13T07:55:34.939Z,18.92
2018-09-13T07:58:04.256Z,19.05
2018-09-13T08:00:33.696Z,18.92
2018-09-13T08:03:03.303Z,19.08
2018-09-13T08:05:32.718Z,18.98
2018-09-13T08:08:02.106Z,19.04
2018-09-13T08:10:31.315Z,19.10
2018-09-13T08:13:01.015Z,18.95
2018-09-13T08:15:30.372Z,19.01
2018-09-13T08:17:59.719Z,19.00
2018-09-13T08:20:28.973Z,19.15
2018-09-13T08:22:58.520Z,19.14
2018-09-13T08:25:27.835Z,19.12
2018-09-13T08:27:57.326Z,19.09
2018-09-13T08:30:26.658Z,18.90
2018-09-13T08:32:56.096Z,19.02
2018-09-13T08:35:25.819Z,19.11
2018-09-13T08:37:55.350Z,19.04
2018-09-13T08:40:24.890Z,19.09
2018-09-13T08:42:54.406Z,19.13
2018-09-13T08:45:23.666Z,19.20
2018-09-13T08:47:53.361Z,19.41
2018-09-13T08:50:22.752Z,19.56
2018-09-13T08:52:52.166Z,19.53
2018-09-13T08:55:21.390Z,19.50
2018-09-13T08:57:50.622Z,19.56
2018-09-13T09:00:19.834Z,19.61
2018-09-13T09:02:49.122Z,19.59
2018-09-13T09:05:18.564Z,19.48
2018-09-13T09:07:47.938Z,19.66
2018-09-13T09:10:17.130Z,19.66
2018-09-13T09:12:46.443Z,19.44
2018-09-13T09:15:15.661Z,19.45
2018-09-13T09:17:45.054Z,19.53
2018-09-13T09:20:14.356Z,19.54
2018-09-13T09:22:43.756Z,19.47
2018-09-13T09:25:12.994Z,19.53
2018-09-13T09:27:42.458Z,19.64
2018-09-13T09:30:11.648Z,19.78
2018-09-13T09:32:41.057Z,19.91
2018-09-13T09:35:10.322Z,19.84
2018-09-13T09:37:39.542Z,19.57
2018-09-13T09:40:09.155Z,19.57
2018-09-13T09:42:38.512Z,19.81
2018-09-13T09:45:07.753Z,19.85
2018-09-13T09:47:37.271Z,19.45
2018-09-13T09:50:07.404Z,19.44
2018-09-13T09:52:36.787Z,19.44
2018-09-13T09:55:06.197Z,19.33
2018-09-13T09:57:35.692Z,19.23
2018-09-13T10:00:05.095Z,19.44
2018-09-13T10:02:34.294Z,19.57
2018-09-13T10:05:03.530Z,19.59
2018-09-13T10:07:33.094Z,19.64
2018-09-13T10:10:02.549Z,19.69
2018-09-13T10:12:31.956Z,19.75
2018-09-13T10:15:06.734Z,19.74
2018-09-13T10:17:41.227Z,19.89
2018-09-13T10:20:15.874Z,19.85
2018-09-13T10:22:50.435Z,19.90
2018-09-13T10:25:24.854Z,19.90
2018-09-13T10:27:59.644Z,19.92
2018-09-13T10:30:34.216Z,19.75
2018-09-13T10:33:08.810Z,19.79
2018-09-13T10:35:43.179Z,19.74
2018-09-13T10:38:18.039Z,19.71
2018-09-13T10:40:52.632Z,19.58
2018-09-13T10:43:27.493Z,19.67
2018-09-13T10:46:02.014Z,19.72
2018-09-13T10:48:32.751Z,19.78
2018-09-13T10:51:07.079Z,19.82
2018-09-13T10:53:41.022Z,19.98
2018-09-13T10:56:10.340Z,19.92
2018-09-13T10:58:39.634Z,19.92
2018-09-13T11:01:08.880Z,19.86
2018-09-13T11:03:38.327Z,19.81
2018-09-13T11:06:07.780Z,19.90
2018-09-13T11:08:37.180Z,19.87
2018-09-13T11:11:06.674Z,19.96
2018-09-13T11:13:41.206Z,19.97
2018-09-13T11:16:10.916Z,19.75
2018-09-13T11:18:40.162Z,19.64
2018-09-13T11:21:09.515Z,19.65
2018-09-13T11:23:39.020Z,19.60
2018-09-13T11:26:08.291Z,19.82
2018-09-13T11:28:37.926Z,19.88
2018-09-13T11:31:07.129Z,19.90
2018-09-13T11:33:36.466Z,20.03
2018-09-13T11:36:05.926Z,19.94
2018-09-13T11:38:35.179Z,19.37
2018-09-13T11:41:04.635Z,19.43
2018-09-13T11:43:33.762Z,19.36
2018-09-13T11:46:03.228Z,19.57
2018-09-13T11:48:32.529Z,19.59
2018-09-13T11:51:01.831Z,19.45
2018-09-13T11:53:31.229Z,19.56
2018-09-13T11:56:00.529Z,19.34
2018-09-13T11:58:29.777Z,19.39
2018-09-13T12:00:59.185Z,19.46
2018-09-13T12:03:28.478Z,19.47
2018-09-13T12:05:58.035Z,19.49
2018-09-13T12:08:27.738Z,19.53
2018-09-13T12:10:57.071Z,19.59
2018-09-13T12:13:26.307Z,19.66
2018-09-13T12:15:55.845Z,19.72
2018-09-13T12:18:25.582Z,19.36
2018-09-13T12:20:54.854Z,19.32
2018-09-13T12:23:24.462Z,19.29
2018-09-13T12:25:53.983Z,19.20
2018-09-13T12:28:23.553Z,19.29
2018-09-13T12:30:52.786Z,19.33
2018-09-13T12:33:22.164Z,19.37
2018-09-13T12:35:51.464Z,19.38
2018-09-13T12:38:20.975Z,19.43
2018-09-13T12:40:50.375Z,19.26
2018-09-13T12:43:19.779Z,19.21
2018-09-13T12:45:49.079Z,19.00
2018-09-13T12:48:18.582Z,18.96
2018-09-13T12:50:47.987Z,18.94
2018-09-13T12:53:17.418Z,18.94
2018-09-13T12:55:51.915Z,19.12
2018-09-13T12:58:21.182Z,19.07
2018-09-13T13:00:50.730Z,19.28
2018-09-13T13:03:20.325Z,19.26
2018-09-13T13:05:50.232Z,18.96
2018-09-13T13:08:19.840Z,18.91
2018-09-13T13:10:49.345Z,19.02
2018-09-13T13:13:18.849Z,19.09
2018-09-13T13:15:48.353Z,19.07
2018-09-13T13:18:17.831Z,19.07
2018-09-13T13:20:47.109Z,19.19
2018-09-13T13:23:16.665Z,19.30
2018-09-13T13:25:46.067Z,19.41
2018-09-13T13:28:15.331Z,19.57
2018-09-13T13:30:44.867Z,19.53
2018-09-13T13:33:14.190Z,19.62
2018-09-13T13:35:43.467Z,19.55
2018-09-13T13:38:12.790Z,19.46
2018-09-13T13:40:42.054Z,19.29
2018-09-13T13:43:11.390Z,19.39
2018-09-13T13:45:40.734Z,19.33
2018-09-13T13:48:10.398Z,19.21
2018-09-13T13:50:39.907Z,19.29
2018-09-13T13:53:09.494Z,19.59
2018-09-13T13:55:38.731Z,19.60
2018-09-13T13:58:08.495Z,19.68
2018-09-13T14:00:37.816Z,19.58
2018-09-13T14:03:07.502Z,19.61
2018-09-13T14:05:37.009Z,19.77
2018-09-13T14:08:06.529Z,19.79
2018-09-13T14:10:35.831Z,19.81
2018-09-13T14:13:05.120Z,19.76
2018-09-13T14:15:34.581Z,19.92
2018-09-13T14:18:03.918Z,19.99
2018-09-13T14:20:33.691Z,19.84
2018-09-13T14:23:03.462Z,19.86
2018-09-13T14:25:33.044Z,19.98
2018-09-13T14:28:02.654Z,19.83
2018-09-13T14:30:31.974Z,19.82
2018-09-13T14:33:01.237Z,19.92
2018-09-13T14:35:30.763Z,20.10
2018-09-13T14:38:00.360Z,20.08
2018-09-13T14:40:30.071Z,20.13
2018-09-13T14:43:00.557Z,20.11
2018-09-13T14:45:30.204Z,20.04
2018-09-13T14:48:00.224Z,19.98
2018-09-13T14:50:29.572Z,19.25
2018-09-13T14:52:59.024Z,19.96
2018-09-13T14:55:28.596Z,19.98
2018-09-13T14:57:58.254Z,19.90
2018-09-13T15:00:27.626Z,19.76
2018-09-13T15:02:57.145Z,19.83
2018-09-13T15:05:26.544Z,19.88
2018-09-13T15:07:56.075Z,19.94
2018-09-13T15:10:25.366Z,20.11
2018-09-13T15:12:54.658Z,19.98
2018-09-13T15:15:25.178Z,20.10
2018-09-13T15:17:54.682Z,20.01
2018-09-13T15:20:24.187Z,20.09
2018-09-13T15:22:53.560Z,20.16
2018-09-13T15:25:22.888Z,20.17
2018-09-13T15:27:52.196Z,20.24
2018-09-13T15:30:21.525Z,20.20
2018-09-13T15:32:51.116Z,20.14
2018-09-13T15:35:20.778Z,20.05
2018-09-13T15:37:50.418Z,19.95
2018-09-13T15:40:19.915Z,20.17
2018-09-13T15:42:49.425Z,20.24
2018-09-13T15:45:19.027Z,20.16
2018-09-13T15:47:48.383Z,20.25
2018-09-13T15:50:17.683Z,20.21
2018-09-13T15:52:47.018Z,20.01
2018-09-13T15:55:16.530Z,20.15
2018-09-13T15:57:45.888Z,20.10
2018-09-13T16:00:15.340Z,20.13
2018-09-13T16:02:44.840Z,20.19
2018-09-13T16:05:14.207Z,20.24
2018-09-13T16:07:43.543Z,20.41
2018-09-13T16:10:13.352Z,20.32
2018-09-13T16:12:42.892Z,20.38
2018-09-13T16:15:12.191Z,20.32
2018-09-13T16:17:41.687Z,20.26
2018-09-13T16:20:11.268Z,20.29
2018-09-13T16:22:41.797Z,20.14
2018-09-13T16:25:11.302Z,20.24
2018-09-13T16:27:40.807Z,20.24
2018-09-13T16:30:10.119Z,20.29
2018-09-13T16:32:40.631Z,20.29
2018-09-13T16:35:10.096Z,20.24
2018-09-13T16:37:44.967Z,20.08
2018-09-13T16:40:19.692Z,20.04
2018-09-13T16:42:54.720Z,19.92
2018-09-13T16:45:28.740Z,19.92
2018-09-13T16:47:59.426Z,19.72
2018-09-13T16:50:28.911Z,19.62
2018-09-13T16:52:58.341Z,19.55
2018-09-13T16:55:27.880Z,19.66
2018-09-13T16:57:57.398Z,19.59
2018-09-13T17:00:27.331Z,19.56
2018-09-13T17:02:56.781Z,19.77
2018-09-13T17:05:26.059Z,19.58
2018-09-13T17:07:55.606Z,19.45
2018-09-13T17:10:25.011Z,19.42
2018-09-13T17:12:54.454Z,19.43
2018-09-13T17:15:24.222Z,19.45
2018-09-13T17:17:54.118Z,19.13
2018-09-13T17:20:23.884Z,19.23
2018-09-13T17:22:53.330Z,19.08
2018-09-13T17:25:22.853Z,19.04
2018-09-13T17:27:52.370Z,18.97
2018-09-13T17:30:21.863Z,18.99
2018-09-13T17:32:51.271Z,18.93
2018-09-13T17:35:21.415Z,18.96
2018-09-13T17:37:50.706Z,19.07
2018-09-13T17:40:20.159Z,19.07
2018-09-13T17:42:49.727Z,18.97
2018-09-13T17:45:19.299Z,19.02
2018-09-13T17:47:48.802Z,19.03
2018-09-13T17:50:18.241Z,19.10
2018-09-13T17:52:47.813Z,19.12
2018-09-13T17:55:18.034Z,19.16
2018-09-13T17:57:47.639Z,19.13
2018-09-13T18:00:17.172Z,19.12
2018-09-13T18:02:46.745Z,19.25
2018-09-13T18:05:16.257Z,19.15
2018-09-13T18:07:45.810Z,19.15
2018-09-13T18:10:15.572Z,19.21
2018-09-13T18:12:45.921Z,19.35
2018-09-13T18:15:15.453Z,19.33
2018-09-13T18:17:45.509Z,19.29
2018-09-13T18:20:15.262Z,19.23
2018-09-13T18:22:44.832Z,19.36
2018-09-13T18:25:14.553Z,19.33
2018-09-13T18:27:44.529Z,19.39
2018-09-13T18:30:14.356Z,19.51
2018-09-13T18:32:43.857Z,19.53
2018-09-13T18:35:13.426Z,19.27
2018-09-13T18:37:42.843Z,19.27
2018-09-13T18:40:12.446Z,19.18
2018-09-13T18:42:41.923Z,19.28
2018-09-13T18:45:11.397Z,19.27
2018-09-13T18:47:41.226Z,19.39
2018-09-13T18:50:10.740Z,19.24
2018-09-13T18:52:40.584Z,19.28
2018-09-13T18:55:10.659Z,19.18
2018-09-13T18:57:40.130Z,19.22
2018-09-13T19:00:10.130Z,19.27
2018-09-13T19:02:39.568Z,19.32
2018-09-13T19:05:09.207Z,19.21
2018-09-13T19:07:38.540Z,19.15
2018-09-13T19:10:08.126Z,18.76
2018-09-13T19:12:37.619Z,18.64
2018-09-13T19:15:07.259Z,18.54
2018-09-13T19:17:36.823Z,18.33
2018-09-13T19:20:06.994Z,18.44
2018-09-13T19:22:36.586Z,18.26
2018-09-13T19:25:06.650Z,18.15
2018-09-13T19:27:36.566Z,17.84
2018-09-13T19:30:06.607Z,17.63
2018-09-13T19:32:36.314Z,17.80
2018-09-13T19:35:06.276Z,18.01
2018-09-13T19:37:36.279Z,18.10
2018-09-13T19:40:06.726Z,18.11
2018-09-13T19:42:36.698Z,18.23
2018-09-13T19:45:07.102Z,18.23
2018-09-13T19:47:36.745Z,18.32
2018-09-13T19:50:06.810Z,18.41
2018-09-13T19:52:36.288Z,18.40
2018-09-13T19:55:06.471Z,18.46
2018-09-13T19:57:35.886Z,18.24
2018-09-13T20:00:05.893Z,18.53
2018-09-13T20:02:35.455Z,18.57
2018-09-13T20:05:05.113Z,18.55
2018-09-13T20:07:34.495Z,18.73
2018-09-13T20:10:04.069Z,18.86
2018-09-13T20:12:33.529Z,18.71
2018-09-13T20:15:03.077Z,18.72
2018-09-13T20:17:32.401Z,18.74
2018-09-13T20:20:01.984Z,18.95
2018-09-13T20:22:31.281Z,18.94
2018-09-13T20:25:00.518Z,18.90
2018-09-13T20:27:29.787Z,18.68
2018-09-13T20:29:59.201Z,18.65
2018-09-13T20:32:28.481Z,18.55
2018-09-13T20:34:57.985Z,18.69
2018-09-13T20:37:27.495Z,18.65
2018-09-13T20:39:56.892Z,18.68
2018-09-13T20:42:26.259Z,18.76
2018-09-13T20:44:55.587Z,18.73
2018-09-13T20:47:24.995Z,18.75
2018-09-13T20:49:54.238Z,18.49
2018-09-13T20:52:23.799Z,18.71
2018-09-13T20:54:53.155Z,18.67
2018-09-13T20:57:22.541Z,18.56
2018-09-13T20:59:51.749Z,18.39
2018-09-13T21:02:21.303Z,17.92
2018-09-13T21:04:50.575Z,17.84
2018-09-13T21:07:19.871Z,18.00
2018-09-13T21:09:49.199Z,18.03
2018-09-13T21:12:18.708Z,17.94
2018-09-13T21:14:48.211Z,18.00
2018-09-13T21:17:17.434Z,17.99
2018-09-13T21:19:47.013Z,17.42
2018-09-13T21:22:16.267Z,17.57
2018-09-13T21:24:45.573Z,17.54
2018-09-13T21:27:15.222Z,17.50
2018-09-13T21:29:44.545Z,17.46
2018-09-13T21:32:13.751Z,17.51
2018-09-13T21:34:43.050Z,17.40
2018-09-13T21:37:12.318Z,17.31
2018-09-13T21:39:41.788Z,17.06
2018-09-13T21:42:11.274Z,17.14
2018-09-13T21:44:40.788Z,17.21
2018-09-13T21:47:10.449Z,16.84
2018-09-13T21:49:39.941Z,16.66
2018-09-13T21:52:09.223Z,16.75
2018-09-13T21:54:38.493Z,16.67
2018-09-13T21:57:07.942Z,16.71
2018-09-13T21:59:37.337Z,16.91
2018-09-13T22:02:07.489Z,16.89
2018-09-13T22:04:36.694Z,16.87
2018-09-13T22:07:05.970Z,16.63
2018-09-13T22:09:35.466Z,16.48
2018-09-13T22:12:05.361Z,16.51
2018-09-13T22:14:34.664Z,16.71
2018-09-13T22:17:04.075Z,16.66
2018-09-13T22:19:33.342Z,16.51
2018-09-13T22:22:02.661Z,16.38
2018-09-13T22:24:31.939Z,16.66
2018-09-13T22:27:01.380Z,16.82
2018-09-13T22:29:30.987Z,16.98
2018-09-13T22:32:00.492Z,17.07
2018-09-13T22:34:30.099Z,17.01
2018-09-13T22:36:59.399Z,17.21
2018-09-13T22:39:28.659Z,17.09
2018-09-13T22:41:57.906Z,16.77
2018-09-13T22:44:27.198Z,16.75
2018-09-13T22:46:56.550Z,16.79
2018-09-13T22:49:25.749Z,16.57
2018-09-13T22:51:55.034Z,16.64
2018-09-13T22:54:24.272Z,16.69
2018-09-13T22:56:53.638Z,16.92
2018-09-13T22:59:22.881Z,16.57
2018-09-13T23:01:52.368Z,16.59
2018-09-13T23:04:21.715Z,17.08
2018-09-13T23:06:50.996Z,17.05
2018-09-13T23:09:20.330Z,16.89
2018-09-13T23:11:49.595Z,16.70
2018-09-13T23:14:18.926Z,16.89
2018-09-13T23:16:49.581Z,16.96
2018-09-13T23:19:17.500Z,16.90
2018-09-13T23:21:46.795Z,17.04
2018-09-13T23:24:16.397Z,17.05
2018-09-13T23:26:45.674Z,17.21
2018-09-13T23:29:14.898Z,17.35
2018-09-13T23:31:44.234Z,17.41
2018-09-13T23:34:13.513Z,17.47
2018-09-13T23:36:42.824Z,17.30
2018-09-13T23:39:12.274Z,17.41
2018-09-13T23:41:42.108Z,17.44
2018-09-13T23:44:11.612Z,17.35
2018-09-13T23:46:40.916Z,17.24
2018-09-13T23:49:10.415Z,17.20
2018-09-13T23:51:39.703Z,17.07
2018-09-13T23:54:08.960Z,17.24
2018-09-13T23:56:38.239Z,17.09
2018-09-13T23:59:07.548Z,17.35
